Time;durP1;ratioP1;P1;durP2;ratioP2;P2;SDS_P1;SDS_P2;PMS_P1;PMS_P2;Temp;Humidity;BMP_temperature;BMP_pressure;BME280_temperature;BME280_humidity;BME280_pressure;Samples;Min_cycle;Max_cycle;Signal;HPM_P1;HPM_P2
2022/09/17 00:01:29;;;;;;;12.43;2.93;;;10.10;99.90;;;;;;5034836;28;20695;-61
2022/09/17 00:04:02;;;;;;;15.27;3.17;;;10.00;99.90;;;;;;5034619;28;20210;-61
2022/09/17 00:06:29;;;;;;;11.37;3.20;;;10.00;99.90;;;;;;5034566;28;20258;-60
2022/09/17 00:08:56;;;;;;;4.53;2.70;;;10.00;99.90;;;;;;5034787;28;20202;-61
2022/09/17 00:11:25;;;;;;;8.57;2.83;;;9.90;99.90;;;;;;5034680;28;20203;-59
2022/09/17 00:13:53;;;;;;;10.20;2.27;;;9.90;99.90;;;;;;5034334;28;20206;-61
2022/09/17 00:16:26;;;;;;;7.80;2.80;;;9.90;99.90;;;;;;5034127;28;20226;-61
2022/09/17 00:18:54;;;;;;;6.17;2.13;;;9.90;99.90;;;;;;5034833;28;20288;-61
2022/09/17 00:21:22;;;;;;;9.93;2.40;;;9.80;99.90;;;;;;5034632;28;20202;-60
2022/09/17 00:23:48;;;;;;;6.37;2.47;;;9.80;99.90;;;;;;5034887;28;20202;-61
2022/09/17 00:26:15;;;;;;;11.53;2.37;;;9.80;99.90;;;;;;5034147;28;20233;-61
2022/09/17 00:28:44;;;;;;;6.87;2.63;;;9.80;99.90;;;;;;5034355;28;20241;-61
2022/09/17 00:31:11;;;;;;;9.30;2.50;;;9.80;99.90;;;;;;5034133;28;20691;-59
2022/09/17 00:33:38;;;;;;;10.40;2.60;;;9.80;99.90;;;;;;5034379;28;20267;-59
2022/09/17 00:36:07;;;;;;;6.57;2.10;;;9.80;99.90;;;;;;5033987;28;20291;-60
2022/09/17 00:38:34;;;;;;;8.90;2.67;;;9.70;99.90;;;;;;5034002;28;20562;-59
2022/09/17 00:41:01;;;;;;;13.87;2.63;;;9.70;99.90;;;;;;5033919;28;20213;-60
2022/09/17 00:43:40;;;;;;;9.53;2.73;;;9.60;99.90;;;;;;5033805;28;20641;-61
2022/09/17 00:46:18;;;;;;;9.93;2.73;;;9.70;99.90;;;;;;5033907;28;20332;-61
2022/09/17 00:48:46;;;;;;;9.00;2.50;;;9.70;99.90;;;;;;5033926;28;20206;-62
2022/09/17 00:51:18;;;;;;;8.17;2.93;;;9.70;99.90;;;;;;5034095;28;20210;-61
2022/09/17 00:53:45;;;;;;;9.63;3.07;;;9.70;99.90;;;;;;5033694;28;20224;-61
2022/09/17 00:56:19;;;;;;;12.07;2.40;;;9.70;99.90;;;;;;5033382;28;20576;-61
2022/09/17 00:58:47;;;;;;;7.60;2.67;;;9.70;99.90;;;;;;5033509;28;20702;-61
2022/09/17 01:01:14;;;;;;;9.73;2.47;;;9.70;99.90;;;;;;5033696;28;20570;-61
2022/09/17 01:03:41;;;;;;;8.97;2.57;;;9.70;99.90;;;;;;5033484;28;20212;-61
2022/09/17 01:06:20;;;;;;;13.87;3.03;;;9.70;99.90;;;;;;5033286;28;20295;-61
2022/09/17 01:09:04;;;;;;;5.70;2.67;;;9.80;99.90;;;;;;5033290;28;21200;-61
2022/09/17 01:11:41;;;;;;;11.00;2.80;;;9.80;99.90;;;;;;5033542;28;20268;-61
2022/09/17 01:14:21;;;;;;;12.33;3.27;;;9.80;99.90;;;;;;5033534;28;20210;-61
2022/09/17 01:16:56;;;;;;;16.90;3.90;;;9.80;99.90;;;;;;5033308;28;20241;-61
2022/09/17 01:19:49;;;;;;;10.20;2.63;;;9.80;99.90;;;;;;5033202;28;20230;-61
2022/09/17 01:22:24;;;;;;;12.70;3.33;;;9.70;99.90;;;;;;5033311;28;20252;-61
2022/09/17 01:25:14;;;;;;;14.50;4.37;;;9.70;99.90;;;;;;5033196;28;20278;-61
2022/09/17 01:28:06;;;;;;;12.90;3.57;;;9.70;99.90;;;;;;5033458;28;20228;-61
2022/09/17 01:30:58;;;;;;;9.73;3.43;;;9.70;99.90;;;;;;5033342;28;20253;-61
2022/09/17 01:33:30;;;;;;;9.10;2.97;;;9.60;99.90;;;;;;5032989;28;20217;-60
2022/09/17 01:36:09;;;;;;;7.07;3.37;;;9.60;99.90;;;;;;5033325;28;20254;-61
2022/09/17 01:38:45;;;;;;;9.63;3.77;;;9.60;99.90;;;;;;5032772;28;20206;-61
2022/09/17 01:41:21;;;;;;;11.20;3.63;;;9.50;99.90;;;;;;5032801;28;20695;-61
2022/09/17 01:43:53;;;;;;;14.20;3.70;;;9.50;99.90;;;;;;5032987;28;20212;-61
2022/09/17 01:46:26;;;;;;;14.77;3.90;;;9.50;99.90;;;;;;5032559;28;20319;-61
2022/09/17 01:48:58;;;;;;;13.80;3.90;;;9.50;99.90;;;;;;5032826;28;20212;-61
2022/09/17 01:51:29;;;;;;;12.40;3.93;;;9.50;99.90;;;;;;5032955;28;20255;-61
2022/09/17 01:54:00;;;;;;;11.23;3.93;;;9.50;99.90;;;;;;5032795;28;20206;-61
2022/09/17 01:56:31;;;;;;;17.10;3.83;;;9.60;99.90;;;;;;5032687;28;20286;-60
2022/09/17 01:59:07;;;;;;;10.73;3.57;;;9.50;99.90;;;;;;5032570;28;20255;-61
2022/09/17 02:01:38;;;;;;;16.53;4.50;;;9.50;99.90;;;;;;5032616;28;20208;-61
2022/09/17 02:04:09;;;;;;;12.43;3.90;;;9.50;99.90;;;;;;5032639;28;20209;-61
2022/09/17 02:06:40;;;;;;;7.80;3.50;;;9.60;99.90;;;;;;5032254;28;20233;-61
2022/09/17 02:09:11;;;;;;;13.00;4.00;;;9.60;99.90;;;;;;5032295;28;20627;-61
2022/09/17 02:11:40;;;;;;;14.13;4.73;;;9.50;99.90;;;;;;5032660;28;20213;-61
2022/09/17 02:14:13;;;;;;;13.50;4.23;;;9.60;99.90;;;;;;5032325;28;20205;-61
2022/09/17 02:16:47;;;;;;;11.83;4.23;;;9.60;99.90;;;;;;5031985;28;20228;-61
2022/09/17 02:19:18;;;;;;;13.20;4.60;;;9.60;99.90;;;;;;5032285;28;20214;-62
2022/09/17 02:21:49;;;;;;;12.13;4.53;;;9.60;99.90;;;;;;5032443;28;20210;-60
2022/09/17 02:24:20;;;;;;;23.40;4.87;;;9.60;99.90;;;;;;5032260;28;20217;-62
2022/09/17 02:26:54;;;;;;;19.97;4.20;;;9.60;99.90;;;;;;5031959;28;20291;-62
2022/09/17 02:29:29;;;;;;;13.87;4.37;;;9.70;99.90;;;;;;5031980;28;20244;-62
2022/09/17 02:31:57;;;;;;;16.10;4.30;;;9.70;99.90;;;;;;5031949;28;20208;-62
2022/09/17 02:34:26;;;;;;;18.90;4.60;;;9.70;99.90;;;;;;5032149;28;20210;-62
2022/09/17 02:36:53;;;;;;;13.03;4.50;;;9.60;99.90;;;;;;5031819;28;20230;-62
2022/09/17 02:39:20;;;;;;;17.90;4.30;;;9.60;99.90;;;;;;5031679;28;20738;-62
2022/09/17 02:41:53;;;;;;;17.27;4.40;;;9.60;99.90;;;;;;5032184;28;20761;-62
2022/09/17 02:44:28;;;;;;;11.67;3.97;;;9.50;99.90;;;;;;5031633;28;20213;-62
2022/09/17 02:47:25;;;;;;;16.43;4.00;;;9.50;99.90;;;;;;5031656;28;20233;-62
2022/09/17 02:50:09;;;;;;;15.00;4.27;;;9.50;99.90;;;;;;5024858;28;20627;-62
2022/09/17 02:52:46;;;;;;;11.40;4.03;;;9.50;99.90;;;;;;5032053;28;20248;-63
2022/09/17 02:55:20;;;;;;;12.93;4.27;;;9.50;99.90;;;;;;5031929;28;20283;-61
2022/09/17 02:57:53;;;;;;;12.03;3.87;;;9.50;99.90;;;;;;5031832;28;20262;-62
2022/09/17 03:00:22;;;;;;;15.00;4.50;;;9.60;99.90;;;;;;5031649;28;20252;-62
2022/09/17 03:02:53;;;;;;;17.53;4.17;;;9.60;99.90;;;;;;5031803;28;20218;-62
2022/09/17 03:05:22;;;;;;;18.00;4.40;;;9.60;99.90;;;;;;5031558;28;20663;-62
2022/09/17 03:07:49;;;;;;;12.70;4.70;;;9.60;99.90;;;;;;5031606;28;20214;-62
2022/09/17 03:10:17;;;;;;;19.33;4.73;;;9.60;99.90;;;;;;5031731;28;20237;-62
2022/09/17 03:12:44;;;;;;;10.77;4.00;;;9.70;99.90;;;;;;5031717;28;20202;-62
2022/09/17 03:15:11;;;;;;;16.73;4.73;;;9.70;99.90;;;;;;5031509;28;20263;-62
2022/09/17 03:17:38;;;;;;;9.70;3.60;;;9.70;99.90;;;;;;5031297;28;20680;-62
2022/09/17 03:20:07;;;;;;;17.50;4.57;;;9.60;99.90;;;;;;5031529;28;20230;-61
2022/09/17 03:22:34;;;;;;;16.10;4.13;;;9.60;99.90;;;;;;5031737;28;20289;-62
2022/09/17 03:25:01;;;;;;;11.50;4.40;;;9.50;99.90;;;;;;5031455;28;20210;-62
2022/09/17 03:27:27;;;;;;;10.67;4.17;;;9.50;99.90;;;;;;5031370;28;20296;-62
2022/09/17 03:29:54;;;;;;;13.93;4.10;;;9.40;99.90;;;;;;5031525;28;20203;-62
2022/09/17 03:32:21;;;;;;;14.70;4.20;;;9.40;99.90;;;;;;5031630;28;20213;-62
2022/09/17 03:34:47;;;;;;;16.73;4.60;;;9.40;99.90;;;;;;5031643;28;20263;-62
2022/09/17 03:37:15;;;;;;;8.90;4.37;;;9.40;99.90;;;;;;5031748;28;20638;-62
2022/09/17 03:39:42;;;;;;;23.63;4.83;;;9.40;99.90;;;;;;5031497;28;20253;-61
2022/09/17 03:42:09;;;;;;;18.57;5.00;;;9.40;99.90;;;;;;5031683;28;20210;-60
2022/09/17 03:44:35;;;;;;;20.80;4.43;;;9.40;99.90;;;;;;5031300;28;20209;-61
2022/09/17 03:47:02;;;;;;;15.13;4.50;;;9.50;99.90;;;;;;5031012;28;20286;-62
2022/09/17 03:49:28;;;;;;;14.80;4.33;;;9.50;99.90;;;;;;5031417;28;20209;-60
2022/09/17 03:51:55;;;;;;;11.07;3.90;;;9.50;99.90;;;;;;5031360;28;20681;-62
2022/09/17 03:54:24;;;;;;;23.03;4.30;;;9.50;99.90;;;;;;5031224;28;20259;-62
2022/09/17 03:56:51;;;;;;;14.47;3.90;;;9.50;99.90;;;;;;5031115;28;20234;-62
2022/09/17 03:59:17;;;;;;;14.73;4.00;;;9.50;99.90;;;;;;5034683;28;20739;-62
2022/09/17 04:01:44;;;;;;;17.73;4.00;;;9.50;99.90;;;;;;5035023;28;20263;-61
2022/09/17 04:04:11;;;;;;;17.77;3.73;;;9.50;99.90;;;;;;5035014;28;20210;-62
2022/09/17 04:06:37;;;;;;;17.53;3.57;;;9.50;99.90;;;;;;5034484;28;20226;-62
2022/09/17 04:09:04;;;;;;;13.20;3.77;;;9.50;99.90;;;;;;5034740;28;20202;-62
2022/09/17 04:11:32;;;;;;;16.93;3.63;;;9.50;99.90;;;;;;5034620;28;20237;-62
2022/09/17 04:13:59;;;;;;;18.13;3.43;;;9.50;99.90;;;;;;5034643;28;20209;-62
2022/09/17 04:16:26;;;;;;;17.57;3.30;;;9.50;99.90;;;;;;5034316;28;20280;-61
2022/09/17 04:18:52;;;;;;;15.53;2.63;;;9.50;99.90;;;;;;5034600;28;20627;-62
2022/09/17 04:21:19;;;;;;;15.93;2.70;;;9.40;99.90;;;;;;5034542;28;20246;-62
2022/09/17 04:23:46;;;;;;;12.43;2.80;;;9.40;99.90;;;;;;5034548;28;20228;-61
2022/09/17 04:26:13;;;;;;;17.47;3.03;;;9.40;99.90;;;;;;5034024;28;20237;-62
2022/09/17 04:28:41;;;;;;;14.83;2.73;;;9.40;99.90;;;;;;5034259;28;20215;-61
2022/09/17 04:31:08;;;;;;;9.53;2.43;;;9.30;99.90;;;;;;5034389;28;20604;-62
2022/09/17 04:33:36;;;;;;;8.37;2.07;;;9.20;99.90;;;;;;5034994;28;20209;-62
2022/09/17 04:36:03;;;;;;;17.00;1.90;;;9.20;99.90;;;;;;5034632;28;20705;-62
2022/09/17 04:38:30;;;;;;;9.23;1.83;;;9.20;99.90;;;;;;5035004;28;20282;-62
2022/09/17 04:40:57;;;;;;;12.40;2.50;;;9.20;99.90;;;;;;5034251;28;20699;-62
2022/09/17 04:43:23;;;;;;;8.37;1.80;;;9.20;99.90;;;;;;5034006;28;20215;-61
2022/09/17 04:45:52;;;;;;;8.13;1.83;;;9.30;99.90;;;;;;5033919;28;20222;-62
2022/09/17 04:48:18;;;;;;;9.20;2.17;;;9.30;99.90;;;;;;5034126;28;20575;-62
2022/09/17 04:50:45;;;;;;;11.80;1.80;;;9.30;99.90;;;;;;5033914;28;20202;-62
2022/09/17 04:53:12;;;;;;;12.63;2.07;;;9.30;99.90;;;;;;5033827;28;20241;-61
2022/09/17 04:55:38;;;;;;;12.07;2.33;;;9.30;99.90;;;;;;5033507;28;20273;-61
2022/09/17 04:58:05;;;;;;;11.80;2.50;;;9.40;99.90;;;;;;5033759;28;20217;-62
2022/09/17 05:00:32;;;;;;;6.97;2.10;;;9.40;99.90;;;;;;5033642;28;20220;-61
2022/09/17 05:03:00;;;;;;;11.83;2.73;;;9.40;99.90;;;;;;5033882;28;20301;-62
2022/09/17 05:05:27;;;;;;;17.67;2.37;;;9.40;99.90;;;;;;5033557;28;20229;-62
2022/09/17 05:07:53;;;;;;;14.17;2.27;;;9.50;99.90;;;;;;5032896;28;20213;-62
2022/09/17 05:10:22;;;;;;;17.40;2.20;;;9.40;99.90;;;;;;5033367;28;20640;-62
2022/09/17 05:12:49;;;;;;;15.87;2.70;;;9.40;99.90;;;;;;5033547;28;20267;-62
2022/09/17 05:15:16;;;;;;;14.00;2.80;;;9.50;99.90;;;;;;5033184;28;20209;-62
2022/09/17 05:17:43;;;;;;;13.43;2.83;;;9.50;99.90;;;;;;5033278;28;20206;-62
2022/09/17 05:20:12;;;;;;;7.57;2.10;;;9.50;99.90;;;;;;5033473;28;20214;-62
2022/09/17 05:22:42;;;;;;;5.53;2.53;;;9.50;99.90;;;;;;5033200;28;20235;-62
2022/09/17 05:25:09;;;;;;;12.57;3.00;;;9.50;99.90;;;;;;5033103;28;20771;-62
2022/09/17 05:27:35;;;;;;;13.07;3.40;;;9.50;99.90;;;;;;5032979;28;20669;-62
2022/09/17 05:30:02;;;;;;;11.50;1.97;;;9.60;99.90;;;;;;5033206;28;20217;-62
2022/09/17 05:32:29;;;;;;;10.73;2.47;;;9.50;99.90;;;;;;5033201;28;20210;-62
2022/09/17 05:34:56;;;;;;;9.37;2.27;;;9.60;99.90;;;;;;5033060;28;20210;-61
2022/09/17 05:37:23;;;;;;;13.07;2.30;;;9.60;99.90;;;;;;5032491;28;20225;-59
2022/09/17 05:39:50;;;;;;;10.47;2.23;;;9.60;99.90;;;;;;5032860;28;20742;-59
2022/09/17 05:42:17;;;;;;;5.20;1.90;;;9.60;99.90;;;;;;5032777;28;20241;-61
2022/09/17 05:44:44;;;;;;;6.20;1.70;;;9.60;99.90;;;;;;5032975;28;20209;-63
2022/09/17 05:47:10;;;;;;;14.30;1.70;;;9.70;99.90;;;;;;5032577;28;20291;-63
2022/09/17 05:49:37;;;;;;;12.87;1.67;;;9.70;99.90;;;;;;5032734;28;20208;-63
2022/09/17 05:52:04;;;;;;;7.90;1.80;;;9.70;99.90;;;;;;5032516;28;20953;-63
2022/09/17 05:54:32;;;;;;;11.03;1.90;;;9.80;99.90;;;;;;5032758;28;20206;-63
2022/09/17 05:56:58;;;;;;;10.03;2.03;;;9.90;99.90;;;;;;5032331;28;20658;-65
2022/09/17 05:59:25;;;;;;;12.73;2.00;;;9.90;99.90;;;;;;5032812;28;20256;-63
2022/09/17 06:01:52;;;;;;;11.83;2.23;;;10.00;99.90;;;;;;5032446;28;20229;-63
2022/09/17 06:04:18;;;;;;;8.00;2.10;;;10.10;99.90;;;;;;5032343;28;20275;-63
2022/09/17 06:06:45;;;;;;;14.43;2.70;;;10.10;99.90;;;;;;5032282;28;20233;-57
2022/09/17 06:09:12;;;;;;;12.97;2.83;;;10.10;99.90;;;;;;5032596;28;20276;-59
2022/09/17 06:11:40;;;;;;;10.87;2.20;;;10.10;99.90;;;;;;5032438;28;20606;-58
2022/09/17 06:14:08;;;;;;;7.93;2.27;;;10.20;99.90;;;;;;5032537;28;20558;-58
2022/09/17 06:16:34;;;;;;;16.70;3.13;;;10.20;99.90;;;;;;5031958;28;20256;-58
2022/09/17 06:19:03;;;;;;;10.50;2.53;;;10.20;99.90;;;;;;5031956;28;20260;-59
2022/09/17 06:21:29;;;;;;;8.67;2.50;;;10.30;99.90;;;;;;5031735;28;20316;-58
2022/09/17 06:23:56;;;;;;;9.90;2.60;;;10.30;99.90;;;;;;5032317;28;20280;-60
2022/09/17 06:26:23;;;;;;;9.17;2.30;;;10.20;99.90;;;;;;5031816;28;20720;-59
2022/09/17 06:28:51;;;;;;;11.30;1.90;;;10.20;99.90;;;;;;5031952;28;20202;-59
2022/09/17 06:31:17;;;;;;;7.90;2.20;;;10.20;99.90;;;;;;5032428;28;20621;-60
2022/09/17 06:33:44;;;;;;;7.07;2.10;;;10.20;99.90;;;;;;5031905;28;20284;-59
2022/09/17 06:36:11;;;;;;;6.20;2.50;;;10.20;99.90;;;;;;5032083;28;20288;-60
2022/09/17 06:38:38;;;;;;;9.67;2.27;;;10.20;99.90;;;;;;5031740;28;20210;-57
2022/09/17 06:41:05;;;;;;;9.90;2.30;;;10.10;99.90;;;;;;5032125;28;20226;-59
2022/09/17 06:43:32;;;;;;;10.77;2.40;;;10.10;99.90;;;;;;5033734;28;20205;-63
2022/09/17 06:46:02;;;;;;;8.73;2.60;;;10.10;99.90;;;;;;5030957;28;20230;-62
2022/09/17 06:48:30;;;;;;;13.93;2.70;;;10.00;99.90;;;;;;5031418;28;20790;-62
2022/09/17 06:51:02;;;;;;;13.03;2.87;;;10.00;99.90;;;;;;5042426;28;20266;-62
2022/09/17 06:53:30;;;;;;;12.50;3.07;;;10.00;99.90;;;;;;5051296;28;20593;-63
2022/09/17 06:55:57;;;;;;;8.87;2.30;;;10.00;99.90;;;;;;5051069;28;20233;-62
2022/09/17 06:58:25;;;;;;;15.13;3.07;;;10.10;99.90;;;;;;5050707;28;20212;-62
2022/09/17 07:00:52;;;;;;;12.83;2.27;;;10.00;99.90;;;;;;5050820;28;20233;-60
2022/09/17 07:03:20;;;;;;;9.97;2.50;;;10.10;99.90;;;;;;5051024;28;20598;-60
2022/09/17 07:05:47;;;;;;;6.73;2.60;;;10.10;99.90;;;;;;5051128;28;20233;-60
2022/09/17 07:08:14;;;;;;;6.93;2.50;;;10.20;99.90;;;;;;5050990;28;20212;-60
2022/09/17 07:10:41;;;;;;;8.70;2.00;;;10.20;99.90;;;;;;5051067;28;20212;-60
2022/09/17 07:13:07;;;;;;;6.77;1.73;;;10.20;99.90;;;;;;5050900;28;20212;-59
2022/09/17 07:15:34;;;;;;;7.37;2.10;;;10.20;99.90;;;;;;5051002;28;20283;-59
2022/09/17 07:18:08;;;;;;;5.90;2.10;;;10.20;99.90;;;;;;5051050;28;20210;-60
2022/09/17 07:20:36;;;;;;;11.67;2.80;;;10.30;99.90;;;;;;5050832;28;20228;-59
2022/09/17 07:23:03;;;;;;;9.57;3.03;;;10.40;99.90;;;;;;5050958;28;20267;-60
2022/09/17 07:25:30;;;;;;;13.50;3.30;;;10.50;99.90;;;;;;5050519;28;20255;-60
2022/09/17 07:27:56;;;;;;;7.93;2.80;;;10.50;99.90;;;;;;5050478;28;20206;-60
2022/09/17 07:30:23;;;;;;;10.70;3.20;;;10.50;99.90;;;;;;5050856;28;20679;-64
2022/09/17 07:32:50;;;;;;;11.93;3.70;;;10.50;99.90;;;;;;5054428;28;20213;-62
2022/09/17 07:35:17;;;;;;;13.93;3.30;;;10.60;99.90;;;;;;5054169;28;20676;-63
2022/09/17 07:37:46;;;;;;;10.77;2.70;;;10.70;99.90;;;;;;5055056;28;20322;-62
2022/09/17 07:40:12;;;;;;;14.33;3.57;;;10.80;99.90;;;;;;5054213;28;20212;-64
2022/09/17 07:42:39;;;;;;;22.17;3.27;;;11.00;99.90;;;;;;5050595;28;20335;-65
2022/09/17 07:45:08;;;;;;;6.83;2.50;;;11.10;99.90;;;;;;5045355;28;20222;-63
2022/09/17 07:47:38;;;;;;;11.73;2.93;;;11.20;99.90;;;;;;5034576;28;20256;-62
2022/09/17 07:50:06;;;;;;;8.80;2.50;;;11.20;99.90;;;;;;5034551;28;20627;-62
2022/09/17 07:52:33;;;;;;;13.53;2.93;;;11.20;99.90;;;;;;5034101;28;20786;-62
2022/09/17 07:55:01;;;;;;;5.77;2.03;;;11.20;99.90;;;;;;5034096;28;20210;-65
2022/09/17 07:57:28;;;;;;;13.90;2.00;;;11.30;99.90;;;;;;5034180;28;20619;-64
2022/09/17 07:59:54;;;;;;;8.33;2.33;;;11.60;99.90;;;;;;5034452;28;20209;-63
2022/09/17 08:02:21;;;;;;;9.03;2.27;;;11.70;70.70;;;;;;5034010;28;20234;-64
2022/09/17 08:04:48;;;;;;;9.97;2.20;;;11.70;22.80;;;;;;5034097;28;20222;-64
2022/09/17 08:07:15;;;;;;;17.90;2.43;;;11.70;24.90;;;;;;5033448;28;20286;-65
2022/09/17 08:09:42;;;;;;;11.97;1.77;;;11.80;23.90;;;;;;5034309;28;20212;-65
2022/09/17 08:12:10;;;;;;;8.23;2.50;;;11.80;1.00;;;;;;5034277;28;20203;-64
2022/09/17 08:14:37;;;;;;;7.00;1.73;;;11.70;1.00;;;;;;5033679;28;20249;-64
2022/09/17 08:17:07;;;;;;;6.77;1.50;;;11.70;1.00;;;;;;5034407;28;20226;-62
2022/09/17 08:19:33;;;;;;;3.97;1.50;;;11.70;1.00;;;;;;5033998;28;20216;-62
2022/09/17 08:22:00;;;;;;;7.53;1.97;;;11.70;1.00;;;;;;5032193;28;20233;-61
2022/09/17 08:24:27;;;;;;;6.70;1.27;;;11.70;1.00;;;;;;5051709;28;20691;-62
2022/09/17 08:26:54;;;;;;;8.90;1.60;;;11.70;1.00;;;;;;5053587;28;20711;-61
2022/09/17 08:29:22;;;;;;;5.40;1.23;;;11.60;1.00;;;;;;5053400;28;20209;-61
2022/09/17 08:31:48;;;;;;;3.97;1.00;;;11.50;1.00;;;;;;5053942;28;20210;-62
2022/09/17 08:34:15;;;;;;;6.47;1.47;;;11.60;1.00;;;;;;5053060;28;20214;-61
2022/09/17 08:36:42;;;;;;;8.40;1.13;;;11.70;1.00;;;;;;5053618;28;20235;-61
2022/09/17 08:39:10;;;;;;;6.13;1.30;;;11.80;1.00;;;;;;5053747;28;20209;-61
2022/09/17 08:41:50;;;;;;;3.83;0.97;;;11.90;1.00;;;;;;5053091;28;20779;-61
2022/09/17 08:44:26;;;;;;;3.00;0.90;;;12.00;1.00;;;;;;5052231;28;20263;-62
2022/09/17 08:46:58;;;;;;;5.23;1.33;;;12.10;1.00;;;;;;5053270;28;20231;-62
2022/09/17 08:49:34;;;;;;;3.73;0.90;;;12.10;99.90;;;;;;5054345;28;20209;-64
2022/09/17 08:52:31;;;;;;;6.23;1.20;;;12.20;1.00;;;;;;5054810;28;20251;-63
2022/09/17 08:55:05;;;;;;;6.57;1.13;;;12.20;99.90;;;;;;5053720;28;20206;-62
2022/09/17 08:57:39;;;;;;;4.50;0.97;;;12.40;99.90;;;;;;5053110;28;20265;-63
2022/09/17 09:00:12;;;;;;;8.33;1.60;;;12.40;99.90;;;;;;5053428;28;20630;-60
2022/09/17 09:02:55;;;;;;;4.00;1.43;;;12.30;99.90;;;;;;5052845;28;20855;-59
2022/09/17 09:05:28;;;;;;;5.27;1.90;;;12.50;99.90;;;;;;5052638;28;20615;-60
2022/09/17 09:08:01;;;;;;;4.57;1.47;;;12.70;99.90;;;;;;5052656;28;20610;-60
2022/09/17 09:10:31;;;;;;;7.77;1.50;;;12.70;99.90;;;;;;5052780;28;20212;-62
2022/09/17 09:12:59;;;;;;;5.40;1.30;;;12.60;99.90;;;;;;5053298;28;20212;-62
2022/09/17 09:15:38;;;;;;;4.07;1.20;;;12.50;99.90;;;;;;5052255;28;20283;-63
2022/09/17 09:18:15;;;;;;;7.07;1.37;;;12.60;99.90;;;;;;5052419;28;20213;-62
2022/09/17 09:20:50;;;;;;;3.20;1.23;;;12.90;99.90;;;;;;5052596;28;20221;-61
2022/09/17 09:23:19;;;;;;;7.63;1.30;;;12.90;99.90;;;;;;5053295;28;20264;-62
2022/09/17 09:25:54;;;;;;;3.20;0.80;;;13.00;99.90;;;;;;5052427;28;20630;-62
2022/09/17 09:28:42;;;;;;;5.70;1.10;;;13.10;99.90;;;;;;5052529;28;20266;-61
2022/09/17 09:31:26;;;;;;;4.50;1.03;;;13.20;99.90;;;;;;5052348;28;20276;-62
2022/09/17 09:33:53;;;;;;;3.30;1.13;;;13.30;99.90;;;;;;5052424;28;20212;-62
2022/09/17 09:36:21;;;;;;;3.27;0.93;;;13.30;1.00;;;;;;5051936;28;20749;-63
2022/09/17 09:38:53;;;;;;;6.03;0.87;;;13.30;1.00;;;;;;5052551;28;20212;-63
2022/09/17 09:41:27;;;;;;;5.20;0.90;;;13.50;99.90;;;;;;5052543;28;20206;-61
2022/09/17 09:44:01;;;;;;;6.07;1.10;;;13.40;99.90;;;;;;5052249;28;20210;-62
2022/09/17 09:47:01;;;;;;;3.50;0.87;;;13.20;99.90;;;;;;5051786;28;20225;-61
2022/09/17 09:49:43;;;;;;;4.53;0.73;;;13.00;99.90;;;;;;5048309;28;20231;-62
2022/09/17 09:52:23;;;;;;;3.60;0.80;;;13.00;99.90;;;;;;5052331;28;20208;-67
2022/09/17 09:54:59;;;;;;;4.67;1.03;;;12.80;99.90;;;;;;5051571;28;20205;-64
2022/09/17 09:57:42;;;;;;;2.73;0.90;;;12.90;99.90;;;;;;5052120;28;20652;-61
2022/09/17 10:00:25;;;;;;;4.53;1.00;;;13.00;99.90;;;;;;5053554;28;20213;-61
2022/09/17 10:02:54;;;;;;;7.40;0.70;;;13.10;82.30;;;;;;5052133;28;20233;-63
2022/09/17 10:05:24;;;;;;;5.50;0.70;;;13.20;99.90;;;;;;5052134;28;20299;-59
2022/09/17 10:07:51;;;;;;;1.40;0.53;;;13.20;1.00;;;;;;5051804;28;20626;-65
2022/09/17 10:10:17;;;;;;;5.73;0.80;;;13.30;99.90;;;;;;5051436;28;20205;-65
2022/09/17 10:12:44;;;;;;;2.57;0.93;;;13.40;1.00;;;;;;5051891;28;20555;-65
2022/09/17 10:15:26;;;;;;;2.87;0.77;;;13.40;1.00;;;;;;5051221;28;20217;-64
2022/09/17 10:18:12;;;;;;;2.10;0.60;;;13.30;1.00;;;;;;5051532;28;20212;-62
2022/09/17 10:20:51;;;;;;;2.93;0.40;;;13.20;1.00;;;;;;5050968;28;20218;-62
2022/09/17 10:23:19;;;;;;;2.50;0.50;;;13.20;99.90;;;;;;5051442;28;20230;-61
2022/09/17 10:25:48;;;;;;;7.50;2.03;;;13.50;1.00;;;;;;5051379;28;20225;-64
2022/09/17 10:28:28;;;;;;;4.73;1.20;;;13.80;99.90;;;;;;5051645;28;20263;-64
2022/09/17 10:30:57;;;;;;;3.53;0.93;;;14.00;99.90;;;;;;5051098;28;20259;-64
2022/09/17 10:33:27;;;;;;;5.07;0.77;;;13.80;99.90;;;;;;5049492;28;20216;-65
2022/09/17 10:36:06;;;;;;;6.60;1.10;;;13.60;99.90;;;;;;5032196;28;20226;-67
2022/09/17 10:38:36;;;;;;;2.17;0.80;;;13.70;99.90;;;;;;5033493;28;20270;-67
2022/09/17 10:41:21;;;;;;;3.30;0.77;;;14.10;99.90;;;;;;5033021;28;20264;-66
2022/09/17 10:43:49;;;;;;;2.43;0.60;;;14.20;99.90;;;;;;5037892;28;20632;-66
2022/09/17 10:46:19;;;;;;;4.20;0.60;;;14.40;99.90;;;;;;5051834;28;20716;-63
2022/09/17 10:48:54;;;;;;;4.17;0.73;;;14.60;99.90;;;;;;5052025;28;20221;-63
2022/09/17 10:51:24;;;;;;;1.53;0.60;;;14.60;99.90;;;;;;5051706;28;20268;-63
2022/09/17 10:54:18;;;;;;;1.93;0.80;;;14.40;99.90;;;;;;5045615;28;20207;-63
2022/09/17 10:56:49;;;;;;;5.30;0.87;;;14.10;99.90;;;;;;5030998;28;20225;-63
2022/09/17 10:59:40;;;;;;;1.40;0.43;;;13.70;99.90;;;;;;5031256;28;20236;-63
2022/09/17 11:02:45;;;;;;;1.20;0.80;;;13.20;99.90;;;;;;5031071;28;20226;-63
2022/09/17 11:05:34;;;;;;;2.37;0.53;;;13.00;99.90;;;;;;5005397;28;20213;-63
2022/09/17 11:08:10;;;;;;;7.70;0.53;;;12.20;99.90;;;;;;5050917;28;20207;-63
2022/09/17 11:10:45;;;;;;;2.30;0.70;;;11.70;99.90;;;;;;5054956;28;20262;-63
2022/09/17 11:13:23;;;;;;;1.27;0.60;;;11.50;99.90;;;;;;5055012;28;20209;-64
2022/09/17 11:16:04;;;;;;;2.03;0.97;;;11.50;1.00;;;;;;5054976;28;20229;-63
2022/09/17 11:18:36;;;;;;;4.60;1.20;;;11.50;1.00;;;;;;5054899;28;20564;-63
2022/09/17 11:21:21;;;;;;;2.40;0.80;;;11.60;1.00;;;;;;5054613;28;20228;-63
2022/09/17 11:24:15;;;;;;;1.77;0.70;;;11.30;1.00;;;;;;5054497;28;20223;-63
2022/09/17 11:26:46;;;;;;;1.00;0.40;;;11.00;1.00;;;;;;5054494;28;20229;-63
2022/09/17 11:29:32;;;;;;;0.50;0.30;;;10.50;4.20;;;;;;5054512;28;20255;-63
2022/09/17 11:32:07;;;;;;;1.30;0.67;;;10.40;23.90;;;;;;5054927;28;20216;-62
2022/09/17 11:34:37;;;;;;;2.53;0.73;;;10.20;48.70;;;;;;5054379;28;20201;-63
2022/09/17 11:37:10;;;;;;;1.97;0.60;;;10.10;91.10;;;;;;5054346;28;20233;-63
2022/09/17 11:39:44;;;;;;;2.43;0.63;;;10.20;99.90;;;;;;5054321;28;20216;-63
2022/09/17 11:42:18;;;;;;;2.97;0.90;;;10.40;99.90;;;;;;5054323;28;20209;-63
2022/09/17 11:44:50;;;;;;;1.23;0.60;;;10.70;99.90;;;;;;5054344;28;20235;-63
2022/09/17 11:47:22;;;;;;;1.40;0.57;;;11.10;99.90;;;;;;5049220;28;20226;-63
2022/09/17 11:49:52;;;;;;;1.23;0.50;;;11.40;99.90;;;;;;5053202;28;20626;-63
2022/09/17 11:52:22;;;;;;;1.70;0.70;;;11.70;99.90;;;;;;5054056;28;20208;-63
2022/09/17 11:54:54;;;;;;;2.70;0.60;;;11.90;99.90;;;;;;5054490;28;20364;-63
2022/09/17 11:57:25;;;;;;;0.77;0.50;;;12.00;71.90;;;;;;5054073;28;20644;-63
2022/09/17 11:59:57;;;;;;;1.77;0.50;;;12.10;33.70;;;;;;5054222;28;20209;-63
2022/09/17 12:02:33;;;;;;;1.63;0.47;;;11.90;1.00;;;;;;5054253;28;20221;-63
2022/09/17 12:05:05;;;;;;;0.40;0.40;;;11.80;1.00;;;;;;5054018;28;20868;-63
2022/09/17 12:07:40;;;;;;;0.73;0.43;;;11.50;1.00;;;;;;5054129;28;20211;-63
2022/09/17 12:10:23;;;;;;;1.53;0.73;;;11.50;1.00;;;;;;5053862;28;20295;-63
2022/09/17 12:12:55;;;;;;;0.93;0.43;;;11.80;1.00;;;;;;5054052;28;20552;-63
2022/09/17 12:15:25;;;;;;;2.00;0.67;;;12.10;1.00;;;;;;5053360;28;20208;-63
2022/09/17 12:17:59;;;;;;;1.50;0.50;;;12.30;1.00;;;;;;5046995;28;20268;-64
2022/09/17 12:20:30;;;;;;;2.27;0.70;;;12.60;1.00;;;;;;5044828;28;20642;-61
2022/09/17 12:23:00;;;;;;;3.27;0.73;;;13.00;1.00;;;;;;5033761;28;20288;-61
2022/09/17 12:25:36;;;;;;;2.50;0.60;;;13.20;1.00;;;;;;5033758;28;20743;-61
2022/09/17 12:28:07;;;;;;;1.43;0.47;;;13.20;99.90;;;;;;5033607;28;20213;-61
2022/09/17 12:30:38;;;;;;;3.70;0.70;;;13.00;99.90;;;;;;5038776;28;20202;-61
2022/09/17 12:33:16;;;;;;;3.17;0.60;;;12.80;99.90;;;;;;5053613;28;20201;-61
2022/09/17 12:36:02;;;;;;;1.33;0.60;;;12.80;1.00;;;;;;5053442;28;20240;-61
2022/09/17 12:38:44;;;;;;;3.67;0.77;;;12.80;1.00;;;;;;5053766;28;20212;-61
2022/09/17 12:41:19;;;;;;;1.33;0.63;;;12.70;99.90;;;;;;5053761;28;20640;-60
2022/09/17 12:44:00;;;;;;;3.27;0.80;;;12.80;1.00;;;;;;5053736;28;20230;-61
2022/09/17 12:46:48;;;;;;;2.37;0.60;;;12.70;1.00;;;;;;5052701;28;20222;-61
2022/09/17 12:49:35;;;;;;;4.13;0.93;;;12.60;1.00;;;;;;5053727;28;20208;-64
2022/09/17 12:52:05;;;;;;;3.97;1.13;;;12.50;1.00;;;;;;5053191;28;20242;-63
2022/09/17 12:54:51;;;;;;;6.90;1.33;;;12.30;1.00;;;;;;5053132;28;20604;-63
2022/09/17 12:57:28;;;;;;;4.37;1.30;;;12.40;1.00;;;;;;5052655;28;20233;-63
2022/09/17 12:59:59;;;;;;;2.20;1.03;;;12.60;1.00;;;;;;5052930;28;20202;-64
2022/09/17 13:02:31;;;;;;;6.60;0.80;;;12.70;1.00;;;;;;5052753;28;20201;-61
2022/09/17 13:05:53;;;;;;;1.77;0.70;;;12.90;1.00;;;;;;5052836;28;20205;-64
2022/09/17 13:08:42;;;;;;;2.03;0.70;;;13.10;1.00;;;;;;5010728;28;20207;-60
2022/09/17 13:11:41;;;;;;;5.13;1.10;;;13.30;99.90;;;;;;5049492;28;20213;-62